Neptune Avra — 9HKH6 — position and weather

sailwx.info

Track history (hours):
 
Tides and Currents Weather Stations Pressure Air Temp Water Temp Dewpoint Dewpoint Depression Visibility Wind Speed Wind Dir Waves Ship Positions

Neptune Avra

Last reported at 2017-Dec-10 13:48 UTC. Time now 2017-Dec-14 09:55 UTC.
Position N 37°23' W 000°49'.

Length 155 m; draft 6.6 m.

Type: Cargo ship. MMSI: 248598000.

Date/timePositionNaut miles runAvg speedWind from/ knotsBaromVisibWave heightAir tempDewpointWater temp
2017-Dec-10 13:48N 37°23' W 000°49'617.5
2017-Dec-10 13:29N 37°27' W 000°43'917.3
2017-Dec-10 12:59N 37°32' W 000°35'816.5
2017-Dec-10 12:30N 37°39' W 000°31'40916.0
2017-Dec-09 11:00N 43°09' E 004°48'1016.7
2017-Dec-09 10:25N 43°17' E 004°54'613.6
2017-Dec-09 10:00N 43°23' E 004°57'5 0.2
2017-Dec-08 03:11N 43°24' E 004°51'2 4.3
2017-Dec-08 02:47N 43°24' E 004°53'310.7
2017-Dec-08 02:30N 43°23' E 004°57'4 7.8
2017-Dec-08 02:00N 43°19' E 004°59'  
2017-Dec-03 12:34N 43°09' E 004°41'117.2
2017-Dec-03 12:30N 43°09' E 004°42'816.3
2017-Dec-03 12:00N 43°14' E 004°52'10 0.3
2017-Dec-02 02:59N 43°23' E 004°57'  
Track history (hours):
 
Tides and Currents Weather Stations Pressure Air Temp Water Temp Dewpoint Dewpoint Depression Visibility Wind Speed Wind Dir Waves Ship Positions

Neptune Avra

Last reported at 2017-Dec-10 13:48 UTC. Time now 2017-Dec-14 09:55 UTC.
Position N 37°23' W 000°49'.

Length 155 m; draft 6.6 m.

Type: Cargo ship. MMSI: 248598000.

Date/timePositionNaut miles runAvg speedWind from/ knotsBaromVisibWave heightAir tempDewpointWater temp
2017-Dec-10 13:48N 37°23' W 000°49'617.5
2017-Dec-10 13:29N 37°27' W 000°43'917.3
2017-Dec-10 12:59N 37°32' W 000°35'816.5
2017-Dec-10 12:30N 37°39' W 000°31'40916.0
2017-Dec-09 11:00N 43°09' E 004°48'1016.7
2017-Dec-09 10:25N 43°17' E 004°54'613.6
2017-Dec-09 10:00N 43°23' E 004°57'5 0.2
2017-Dec-08 03:11N 43°24' E 004°51'2 4.3
2017-Dec-08 02:47N 43°24' E 004°53'310.7
2017-Dec-08 02:30N 43°23' E 004°57'4 7.8
2017-Dec-08 02:00N 43°19' E 004°59'  
2017-Dec-03 12:34N 43°09' E 004°41'117.2
2017-Dec-03 12:30N 43°09' E 004°42'816.3
2017-Dec-03 12:00N 43°14' E 004°52'10 0.3
2017-Dec-02 02:59N 43°23' E 004°57'  

Dump ship's entire track history